createdAt,value
2022-12-01T00:01:21.187Z,11.25
2022-12-01T00:03:48.414Z,11.80
2022-12-01T00:06:18.864Z,8.75
2022-12-01T00:09:05.857Z,10.07
2022-12-01T00:11:34.002Z,6.82
2022-12-01T00:14:01.487Z,11.52
2022-12-01T00:16:28.657Z,9.75
2022-12-01T00:21:24.216Z,7.35
2022-12-01T00:23:53.596Z,7.25
2022-12-01T00:26:21.641Z,9.93
2022-12-01T00:28:52.884Z,9.27
2022-12-01T00:31:20.297Z,8.70
2022-12-01T00:33:47.126Z,4.63
2022-12-01T00:36:14.198Z,9.82
2022-12-01T00:41:07.544Z,9.48
2022-12-01T00:43:34.378Z,9.50
2022-12-01T00:46:01.197Z,9.25
2022-12-01T00:48:27.947Z,9.05
2022-12-01T00:50:55.726Z,6.30
2022-12-01T00:53:23.554Z,10.25
2022-12-01T00:55:50.448Z,5.75
2022-12-01T00:58:17.166Z,8.98
2022-12-01T01:00:43.947Z,7.78
2022-12-01T01:03:11.328Z,6.00
2022-12-01T01:05:40.281Z,7.53
2022-12-01T01:08:08.851Z,8.00
2022-12-01T01:10:43.439Z,9.98
2022-12-01T01:13:10.583Z,10.18
2022-12-01T01:15:37.936Z,5.60
2022-12-01T01:18:05.491Z,9.25
2022-12-01T01:20:32.680Z,7.40
2022-12-01T01:25:25.957Z,8.25
2022-12-01T01:27:52.724Z,4.95
2022-12-01T01:30:19.786Z,8.57
2022-12-01T01:32:46.488Z,7.53
2022-12-01T01:35:13.279Z,6.93
2022-12-01T01:37:39.963Z,9.57
2022-12-01T01:40:07.247Z,9.02
2022-12-01T01:42:33.975Z,6.93
2022-12-01T01:45:00.752Z,8.32
2022-12-01T01:47:34.923Z,6.32
2022-12-01T01:50:12.679Z,7.57
2022-12-01T01:52:50.356Z,6.43
2022-12-01T01:55:17.935Z,9.02
2022-12-01T01:57:45.547Z,9.13
2022-12-01T02:00:15.748Z,8.23
2022-12-01T02:02:45.488Z,6.70
2022-12-01T02:05:17.814Z,7.20
2022-12-01T02:07:45.607Z,4.75
2022-12-01T02:10:14.556Z,8.48
2022-12-01T02:12:53.243Z,8.82
2022-12-01T02:15:44.373Z,6.28
2022-12-01T02:18:22.304Z,5.85
2022-12-01T02:21:24.737Z,8.93
2022-12-01T02:24:12.561Z,8.52
2022-12-01T02:26:49.092Z,6.00
2022-12-01T02:29:43.243Z,8.43
2022-12-01T02:32:32.731Z,8.77
2022-12-01T02:35:22.765Z,7.50
2022-12-01T02:38:03.503Z,6.55
2022-12-01T02:40:39.538Z,7.35
2022-12-01T02:43:12.353Z,7.30
2022-12-01T02:45:59.302Z,10.80
2022-12-01T02:48:33.820Z,7.78
2022-12-01T02:51:09.711Z,6.90
2022-12-01T02:53:36.724Z,5.40
2022-12-01T02:56:07.396Z,7.85
2022-12-01T02:58:34.107Z,7.18
2022-12-01T03:01:18.508Z,7.80
2022-12-01T03:04:09.085Z,8.02
2022-12-01T03:07:03.482Z,6.88
2022-12-01T03:09:49.503Z,7.28
2022-12-01T03:12:23.726Z,9.45
2022-12-01T03:15:03.473Z,6.88
2022-12-01T03:17:51.819Z,9.35
2022-12-01T03:20:56.547Z,6.10
2022-12-01T03:23:28.715Z,8.70
2022-12-01T03:25:57.956Z,11.68
2022-12-01T03:28:30.939Z,10.88
2022-12-01T03:31:03.714Z,8.38
2022-12-01T03:33:37.775Z,9.07
2022-12-01T03:36:22.843Z,10.10
2022-12-01T03:38:55.696Z,12.07
2022-12-01T03:41:26.216Z,11.35
2022-12-01T03:43:59.693Z,10.38
2022-12-01T03:46:47.450Z,10.02
2022-12-01T03:49:17.169Z,10.95
2022-12-01T03:52:01.690Z,7.68
2022-12-01T03:54:55.329Z,6.63
2022-12-01T03:57:31.576Z,6.90
2022-12-01T03:59:58.465Z,7.65
2022-12-01T04:02:27.951Z,6.35
2022-12-01T04:04:54.779Z,9.77
2022-12-01T04:07:23.489Z,6.90
2022-12-01T04:09:50.645Z,8.75
2022-12-01T04:14:57.908Z,7.65
2022-12-01T04:17:25.649Z,9.38
2022-12-01T04:19:52.995Z,9.57
2022-12-01T04:24:46.353Z,8.57
2022-12-01T04:27:13.444Z,11.93
2022-12-01T04:29:40.199Z,7.55
2022-12-01T04:32:07.241Z,10.25
2022-12-01T04:34:34.022Z,9.25
2022-12-01T04:37:00.943Z,9.55
2022-12-01T04:39:27.628Z,10.07
2022-12-01T04:41:54.316Z,6.80
2022-12-01T04:44:22.180Z,9.50
2022-12-01T04:46:50.763Z,7.18
2022-12-01T04:49:17.560Z,8.65
2022-12-01T04:51:44.320Z,10.05
2022-12-01T04:54:11.095Z,6.07
2022-12-01T04:56:38.127Z,10.10
2022-12-01T04:59:04.815Z,12.20
2022-12-01T05:01:31.953Z,10.80
2022-12-01T05:06:27.848Z,10.18
2022-12-01T05:08:57.077Z,11.90
2022-12-01T05:11:24.455Z,10.77
2022-12-01T05:13:51.299Z,10.20
2022-12-01T05:16:19.688Z,9.90
2022-12-01T05:18:51.531Z,11.20
2022-12-01T05:21:18.652Z,10.25
2022-12-01T05:23:45.698Z,8.40
2022-12-01T05:26:12.456Z,10.50
2022-12-01T05:28:40.921Z,10.95
2022-12-01T05:31:07.661Z,11.80
2022-12-01T05:33:34.424Z,12.27
2022-12-01T05:36:01.125Z,12.23
2022-12-01T05:38:27.818Z,8.80
2022-12-01T05:40:56.362Z,12.80
2022-12-01T05:43:28.983Z,15.82
2022-12-01T05:45:58.013Z,14.38
2022-12-01T05:48:25.521Z,13.70
2022-12-01T05:50:52.405Z,13.52
2022-12-01T05:53:19.552Z,14.75
2022-12-01T05:58:13.102Z,12.23
2022-12-01T06:00:45.300Z,13.02
2022-12-01T06:03:13.566Z,14.55
2022-12-01T06:05:40.629Z,14.82
2022-12-01T06:08:08.457Z,12.95
2022-12-01T06:10:35.936Z,9.95
2022-12-01T06:13:02.759Z,11.77
2022-12-01T06:15:29.768Z,9.15
2022-12-01T06:17:59.814Z,11.25
2022-12-01T06:20:26.877Z,10.25
2022-12-01T06:22:53.889Z,8.85
2022-12-01T06:25:20.770Z,8.18
2022-12-01T06:27:47.541Z,12.00
2022-12-01T06:30:14.563Z,14.75
2022-12-01T06:32:41.301Z,15.82
2022-12-01T06:35:08.374Z,13.45
2022-12-01T06:37:35.439Z,14.88
2022-12-01T06:40:02.146Z,14.85
2022-12-01T06:42:33.601Z,12.48
2022-12-01T06:45:00.305Z,11.95
2022-12-01T06:47:27.403Z,12.80
2022-12-01T06:49:54.199Z,12.10
2022-12-01T06:52:20.953Z,11.88
2022-12-01T06:54:47.659Z,8.32
2022-12-01T06:57:15.484Z,5.50
2022-12-01T06:59:42.522Z,6.93
2022-12-01T07:04:37.749Z,5.95
2022-12-01T07:07:05.742Z,7.13
2022-12-01T07:09:32.419Z,5.50
2022-12-01T07:11:59.216Z,8.35
2022-12-01T07:14:27.218Z,5.38
2022-12-01T07:16:54.242Z,7.80
2022-12-01T07:19:21.048Z,7.55
2022-12-01T07:21:47.869Z,5.50
2022-12-01T07:24:14.802Z,7.70
2022-12-01T07:26:44.335Z,6.35
2022-12-01T07:29:12.760Z,6.88
2022-12-01T07:31:39.983Z,6.93
2022-12-01T07:34:06.940Z,6.18
2022-12-01T07:36:33.632Z,5.68
2022-12-01T07:39:04.651Z,8.60
2022-12-01T07:41:31.428Z,6.30
2022-12-01T07:43:58.113Z,5.90
2022-12-01T07:46:26.884Z,9.00
2022-12-01T07:48:55.290Z,5.47
2022-12-01T07:51:23.816Z,5.45
2022-12-01T07:53:52.041Z,7.65
2022-12-01T07:56:20.030Z,7.22
2022-12-01T07:58:47.057Z,5.95
2022-12-01T08:01:20.454Z,5.15
2022-12-01T08:03:54.984Z,8.23
2022-12-01T08:06:22.961Z,6.28
2022-12-01T08:08:50.064Z,8.30
2022-12-01T08:11:29.630Z,5.63
2022-12-01T08:13:57.005Z,8.57
2022-12-01T08:16:25.048Z,7.95
2022-12-01T08:18:52.460Z,8.93
2022-12-01T08:21:20.956Z,5.70
2022-12-01T08:23:48.723Z,7.13
2022-12-01T08:26:18.820Z,7.25
2022-12-01T08:28:46.732Z,5.28
2022-12-01T08:31:19.689Z,7.50
2022-12-01T08:33:47.748Z,7.40
2022-12-01T08:36:15.651Z,8.73
2022-12-01T08:38:46.807Z,6.70
2022-12-01T08:41:14.419Z,9.50
2022-12-01T08:44:00.162Z,10.75
2022-12-01T08:46:31.309Z,8.20
2022-12-01T08:48:58.414Z,5.68
2022-12-01T08:51:26.278Z,11.65
2022-12-01T08:53:54.436Z,8.63
2022-12-01T08:56:33.398Z,7.10
2022-12-01T08:59:00.849Z,10.13
2022-12-01T09:01:28.610Z,9.43
2022-12-01T09:04:06.535Z,8.73
2022-12-01T09:06:38.501Z,7.85
2022-12-01T09:09:05.664Z,11.88
2022-12-01T09:13:59.728Z,11.30
2022-12-01T09:16:26.477Z,10.48
2022-12-01T09:18:53.202Z,5.20
2022-12-01T09:21:28.436Z,9.68
2022-12-01T09:23:55.205Z,7.80
2022-12-01T09:26:22.838Z,6.90
2022-12-01T09:28:53.428Z,6.00
2022-12-01T09:31:20.878Z,7.80
2022-12-01T09:33:47.649Z,9.30
2022-12-01T09:36:15.051Z,10.90
2022-12-01T09:38:42.547Z,7.97
2022-12-01T09:41:19.424Z,9.55
2022-12-01T09:43:54.675Z,9.10
2022-12-01T09:46:33.130Z,10.00
2022-12-01T09:49:03.383Z,5.72
2022-12-01T09:51:31.141Z,8.95
2022-12-01T09:54:00.139Z,6.53
2022-12-01T09:56:29.934Z,7.15
2022-12-01T09:59:08.034Z,7.95
2022-12-01T10:01:38.348Z,9.43
2022-12-01T10:04:20.975Z,8.50
2022-12-01T10:06:55.687Z,8.20
2022-12-01T10:09:52.144Z,9.15
2022-12-01T10:12:27.794Z,8.00
2022-12-01T10:15:06.270Z,9.52
2022-12-01T10:18:08.492Z,10.60
2022-12-01T10:20:41.121Z,10.82
2022-12-01T10:23:32.136Z,7.03
2022-12-01T10:26:09.487Z,10.85
2022-12-01T10:29:03.043Z,10.10
2022-12-01T10:32:00.234Z,7.63
2022-12-01T10:34:28.551Z,9.18
2022-12-01T10:36:57.346Z,9.40
2022-12-01T10:39:46.619Z,6.65
2022-12-01T10:42:36.682Z,9.52
2022-12-01T10:45:13.830Z,9.85
2022-12-01T10:48:15.111Z,6.03
2022-12-01T10:50:46.408Z,13.35
2022-12-01T10:53:26.964Z,10.25
2022-12-01T10:56:16.511Z,10.15
2022-12-01T10:58:48.716Z,10.95
2022-12-01T11:01:24.786Z,7.63
2022-12-01T11:04:08.074Z,5.95
2022-12-01T11:06:35.745Z,6.75
2022-12-01T11:09:07.113Z,5.65
2022-12-01T11:11:37.811Z,6.40
2022-12-01T11:14:28.061Z,6.82
2022-12-01T11:16:54.874Z,8.98
2022-12-01T11:19:28.319Z,8.57
2022-12-01T11:21:58.354Z,4.68
2022-12-01T11:24:28.089Z,9.82
2022-12-01T11:26:58.533Z,7.05
2022-12-01T11:29:38.308Z,5.95
2022-12-01T11:32:22.843Z,6.35
2022-12-01T11:35:12.780Z,7.13
2022-12-01T11:37:54.872Z,4.55
2022-12-01T11:40:33.747Z,8.03
2022-12-01T11:43:05.058Z,4.80
2022-12-01T11:45:40.347Z,5.60
2022-12-01T11:48:13.401Z,5.95
2022-12-01T11:50:43.998Z,5.78
2022-12-01T11:53:25.769Z,4.65
2022-12-01T11:55:52.459Z,6.32
2022-12-01T11:58:19.279Z,5.07
2022-12-01T12:00:52.036Z,5.47
2022-12-01T12:03:44.963Z,8.40
2022-12-01T12:06:42.449Z,4.55
2022-12-01T12:09:12.038Z,9.77
2022-12-01T12:11:52.297Z,7.85
2022-12-01T12:14:41.039Z,7.60
2022-12-01T12:17:51.003Z,4.55
2022-12-01T12:20:37.241Z,8.65
2022-12-01T12:24:02.584Z,5.90
2022-12-01T12:26:35.183Z,7.82
2022-12-01T12:29:21.802Z,7.03
2022-12-01T12:32:12.962Z,8.23
2022-12-01T12:35:04.496Z,7.53
2022-12-01T12:37:44.410Z,6.93
2022-12-01T12:41:02.110Z,7.20
2022-12-01T12:43:36.755Z,5.10
2022-12-01T12:46:44.990Z,8.63
2022-12-01T12:49:23.258Z,5.43
2022-12-01T12:52:07.827Z,5.95
2022-12-01T12:54:52.720Z,5.82
2022-12-01T12:57:22.075Z,7.88
2022-12-01T12:59:55.933Z,6.72
2022-12-01T13:02:41.233Z,7.45
2022-12-01T13:05:20.886Z,6.50
2022-12-01T13:07:51.444Z,4.38
2022-12-01T13:10:48.803Z,7.40
2022-12-01T13:13:33.589Z,6.35
2022-12-01T13:16:02.922Z,7.13
2022-12-01T13:19:03.302Z,7.93
2022-12-01T13:21:36.620Z,9.20
2022-12-01T13:24:04.691Z,7.20
2022-12-01T13:26:34.855Z,6.45
2022-12-01T13:29:06.057Z,8.88
2022-12-01T13:31:52.399Z,8.77
2022-12-01T13:34:37.399Z,7.63
2022-12-01T13:37:04.406Z,8.23
2022-12-01T13:39:36.229Z,7.57
2022-12-01T13:42:08.493Z,9.05
2022-12-01T13:44:40.388Z,6.63
2022-12-01T13:47:10.099Z,7.57
2022-12-01T13:49:49.222Z,7.80
2022-12-01T13:52:26.765Z,7.07
2022-12-01T13:55:08.443Z,8.23
2022-12-01T13:57:56.729Z,10.23
2022-12-01T14:00:35.000Z,7.47
2022-12-01T14:03:16.894Z,9.05
2022-12-01T14:05:53.172Z,7.82
2022-12-01T14:08:31.542Z,5.10
2022-12-01T14:11:01.724Z,4.63
2022-12-01T14:13:31.328Z,11.13
2022-12-01T14:16:03.603Z,9.70
2022-12-01T14:18:40.534Z,5.93
2022-12-01T14:21:10.573Z,10.37
2022-12-01T14:24:02.232Z,9.02
2022-12-01T14:26:30.812Z,10.73
2022-12-01T14:29:00.393Z,12.05
2022-12-01T14:31:33.293Z,10.85
2022-12-01T14:34:19.217Z,11.50
2022-12-01T14:36:53.489Z,11.25
2022-12-01T14:39:42.921Z,12.82
2022-12-01T14:42:51.009Z,11.02
2022-12-01T14:45:25.166Z,5.40
2022-12-01T14:48:05.284Z,10.07
2022-12-01T14:50:39.850Z,9.98
2022-12-01T14:53:22.712Z,16.52
2022-12-01T14:55:54.009Z,6.75
2022-12-01T14:58:24.857Z,8.52
2022-12-01T15:01:03.513Z,13.20
2022-12-01T15:03:38.592Z,11.27
2022-12-01T15:06:06.203Z,12.73
2022-12-01T15:08:53.405Z,12.50
2022-12-01T15:11:30.213Z,9.43
2022-12-01T15:13:58.044Z,10.77
2022-12-01T15:16:28.508Z,10.18
2022-12-01T15:18:55.429Z,10.48
2022-12-01T15:21:32.003Z,13.38
2022-12-01T15:24:00.395Z,11.60
2022-12-01T15:26:31.588Z,10.75
2022-12-01T15:29:25.592Z,10.85
2022-12-01T15:32:15.560Z,8.57
2022-12-01T15:34:44.553Z,8.82
2022-12-01T15:37:18.464Z,10.90
2022-12-01T15:39:49.081Z,9.77
2022-12-01T15:42:29.565Z,12.82
2022-12-01T15:45:02.050Z,11.23
2022-12-01T15:47:41.190Z,12.30
2022-12-01T15:50:33.986Z,14.27
2022-12-01T15:53:19.909Z,10.00
2022-12-01T15:55:54.097Z,11.90
2022-12-01T15:58:27.956Z,13.50
2022-12-01T16:01:08.749Z,13.32
2022-12-01T16:03:50.119Z,9.95
2022-12-01T16:06:18.360Z,12.80
2022-12-01T16:09:02.580Z,8.57
2022-12-01T16:11:29.701Z,7.03
2022-12-01T16:14:00.904Z,12.70
2022-12-01T16:16:40.186Z,12.10
2022-12-01T16:19:09.899Z,9.95
2022-12-01T16:21:50.816Z,8.90
2022-12-01T16:24:36.665Z,8.65
2022-12-01T16:27:08.744Z,12.30
2022-12-01T16:29:55.980Z,12.80
2022-12-01T16:32:41.511Z,14.45
2022-12-01T16:35:22.837Z,15.80
2022-12-01T16:37:49.568Z,14.70
2022-12-01T16:40:17.021Z,16.17
2022-12-01T16:42:43.966Z,18.58
2022-12-01T16:45:15.656Z,15.60
2022-12-01T16:47:43.043Z,17.55
2022-12-01T16:50:21.861Z,14.73
2022-12-01T16:52:48.663Z,14.98
2022-12-01T16:55:27.342Z,12.07
2022-12-01T16:57:55.446Z,12.70
2022-12-01T17:00:23.019Z,11.25
2022-12-01T17:02:50.051Z,14.65
2022-12-01T17:05:17.024Z,12.80
2022-12-01T17:07:43.789Z,13.00
2022-12-01T17:10:11.183Z,14.38
2022-12-01T17:12:37.920Z,9.13
2022-12-01T17:15:05.516Z,11.00
2022-12-01T17:17:32.257Z,15.48
2022-12-01T17:19:59.105Z,16.33
2022-12-01T17:22:26.350Z,18.00
2022-12-01T17:24:55.506Z,17.25
2022-12-01T17:27:23.661Z,17.77
2022-12-01T17:29:50.855Z,20.13
2022-12-01T17:34:44.116Z,16.63
2022-12-01T17:37:13.797Z,14.75
2022-12-01T17:39:44.619Z,15.55
2022-12-01T17:42:11.624Z,15.88
2022-12-01T17:44:38.349Z,17.90
2022-12-01T17:47:05.241Z,17.92
2022-12-01T17:49:31.945Z,13.23
2022-12-01T17:51:58.685Z,16.85
2022-12-01T17:54:25.427Z,15.90
2022-12-01T17:56:52.149Z,16.48
2022-12-01T17:59:18.854Z,15.90
2022-12-01T18:01:45.810Z,16.85
2022-12-01T18:04:12.660Z,14.70
2022-12-01T18:06:39.596Z,14.27
2022-12-01T18:09:06.747Z,12.65
2022-12-01T18:14:00.641Z,17.08
2022-12-01T18:16:30.571Z,17.52
2022-12-01T18:18:59.262Z,16.65
2022-12-01T18:21:26.865Z,19.58
2022-12-01T18:23:56.928Z,20.00
2022-12-01T18:26:25.101Z,18.85
2022-12-01T18:29:04.976Z,16.88
2022-12-01T18:31:32.342Z,15.60
2022-12-01T18:34:04.001Z,18.23
2022-12-01T18:36:33.127Z,20.00
2022-12-01T18:39:01.033Z,19.48
2022-12-01T18:41:28.026Z,20.27
2022-12-01T18:43:54.778Z,22.50
2022-12-01T18:46:22.266Z,20.25
2022-12-01T18:48:51.346Z,19.65
2022-12-01T18:51:19.473Z,20.67
2022-12-01T18:53:46.928Z,20.88
2022-12-01T18:56:15.265Z,20.70
2022-12-01T18:58:42.739Z,20.33
2022-12-01T19:03:59.661Z,20.10
2022-12-01T19:06:27.543Z,20.38
2022-12-01T19:08:55.160Z,20.15
2022-12-01T19:11:22.213Z,19.83
2022-12-01T19:13:48.961Z,21.20
2022-12-01T19:16:18.701Z,22.05
2022-12-01T19:18:46.055Z,21.83
2022-12-01T19:21:15.532Z,20.83
2022-12-01T19:23:43.621Z,19.42
2022-12-01T19:26:12.542Z,20.70
2022-12-01T19:28:40.407Z,19.48
2022-12-01T19:31:09.552Z,19.40
2022-12-01T19:33:36.429Z,20.23
2022-12-01T19:36:16.641Z,18.45
2022-12-01T19:38:44.679Z,18.90
2022-12-01T19:41:13.779Z,18.55
2022-12-01T19:43:42.502Z,20.30
2022-12-01T19:46:18.427Z,17.60
2022-12-01T19:48:46.512Z,18.35
2022-12-01T19:51:19.367Z,18.38
2022-12-01T19:53:46.639Z,16.83
2022-12-01T19:58:40.520Z,16.10
2022-12-01T20:01:10.423Z,15.23
2022-12-01T20:03:38.378Z,21.23
2022-12-01T20:06:11.932Z,18.35
2022-12-01T20:08:39.533Z,21.85
2022-12-01T20:11:07.398Z,20.35
2022-12-01T20:13:40.122Z,21.73
2022-12-01T20:16:16.378Z,22.17
2022-12-01T20:18:43.535Z,23.02
2022-12-01T20:21:24.785Z,20.80
2022-12-01T20:23:57.708Z,20.63
2022-12-01T20:26:30.386Z,21.10
2022-12-01T20:29:04.814Z,20.10
2022-12-01T20:31:33.572Z,14.40
2022-12-01T20:34:02.844Z,18.70
2022-12-01T20:36:32.129Z,15.95
2022-12-01T20:38:58.933Z,18.13
2022-12-01T20:41:25.723Z,21.55
2022-12-01T20:43:52.485Z,19.98
2022-12-01T20:46:19.289Z,21.35
2022-12-01T20:48:46.037Z,19.95
2022-12-01T20:51:14.413Z,19.35
2022-12-01T20:53:54.477Z,20.45
2022-12-01T20:56:28.224Z,18.83
2022-12-01T20:58:55.176Z,18.90
2022-12-01T21:01:22.653Z,21.15
2022-12-01T21:03:51.022Z,19.30
2022-12-01T21:06:18.324Z,22.95
2022-12-01T21:11:49.352Z,20.13
2022-12-01T21:14:21.068Z,21.27
2022-12-01T21:16:49.402Z,22.30
2022-12-01T21:19:26.346Z,22.25
2022-12-01T21:21:53.325Z,20.27
2022-12-01T21:24:22.442Z,31.30
2022-12-01T21:26:58.819Z,18.75
2022-12-01T21:29:52.920Z,19.88
2022-12-01T21:32:33.726Z,20.05
2022-12-01T21:35:23.783Z,18.38
2022-12-01T21:38:04.760Z,18.67
2022-12-01T21:40:32.034Z,17.90
2022-12-01T21:45:31.893Z,18.35
2022-12-01T21:48:06.332Z,21.20
2022-12-01T21:50:33.046Z,23.23
2022-12-01T21:52:59.855Z,24.50
2022-12-01T21:55:26.491Z,24.30
2022-12-01T21:57:54.758Z,23.42
2022-12-01T22:00:33.813Z,22.98
2022-12-01T22:03:22.717Z,20.92
2022-12-01T22:06:21.256Z,22.05
2022-12-01T22:08:43.102Z,23.75
2022-12-01T22:11:16.192Z,21.65
2022-12-01T22:14:08.298Z,23.17
2022-12-01T22:16:46.934Z,24.23
2022-12-01T22:19:16.619Z,22.42
2022-12-01T22:21:48.303Z,21.20
2022-12-01T22:24:22.549Z,22.65
2022-12-01T22:26:52.818Z,22.33
2022-12-01T22:29:33.853Z,21.30
2022-12-01T22:32:31.117Z,23.45
2022-12-01T22:35:14.326Z,19.75
2022-12-01T22:37:45.609Z,21.52
2022-12-01T22:40:27.257Z,20.80
2022-12-01T22:42:53.987Z,22.77
2022-12-01T22:45:24.241Z,20.75
2022-12-01T22:47:56.160Z,18.92
2022-12-01T22:50:32.552Z,21.52
2022-12-01T22:53:06.483Z,24.27
2022-12-01T22:55:34.131Z,24.40
2022-12-01T22:58:35.138Z,21.67
2022-12-01T23:01:07.762Z,24.90
2022-12-01T23:03:34.808Z,22.83
2022-12-01T23:06:01.564Z,20.85
2022-12-01T23:08:28.251Z,22.75
2022-12-01T23:10:54.990Z,23.75
2022-12-01T23:13:24.427Z,23.55
2022-12-01T23:15:55.859Z,24.55
2022-12-01T23:18:23.841Z,25.15
2022-12-01T23:20:57.928Z,23.55
2022-12-01T23:23:30.237Z,25.38
2022-12-01T23:25:57.727Z,24.88
2022-12-01T23:28:25.073Z,27.52
2022-12-01T23:30:56.927Z,26.63
2022-12-01T23:33:27.906Z,27.08
2022-12-01T23:36:02.304Z,27.75
2022-12-01T23:38:38.271Z,27.55
2022-12-01T23:41:07.650Z,25.65
2022-12-01T23:43:43.144Z,25.00
2022-12-01T23:46:16.099Z,26.83
2022-12-01T23:48:46.978Z,24.85
2022-12-01T23:51:45.724Z,25.10
2022-12-01T23:54:26.145Z,25.73
2022-12-01T23:56:56.710Z,26.23
2022-12-01T23:59:24.660Z,25.73
